createdAt,value
2022-10-16T00:00:11.811Z,9.80
2022-10-16T00:02:40.447Z,9.50
2022-10-16T00:05:09.248Z,9.50
2022-10-16T00:07:37.792Z,9.57
2022-10-16T00:10:07.344Z,9.40
2022-10-16T00:12:36.317Z,9.53
2022-10-16T00:15:07.952Z,10.83
2022-10-16T00:17:36.736Z,9.80
2022-10-16T00:20:06.517Z,9.93
2022-10-16T00:22:35.586Z,9.63
2022-10-16T00:25:04.492Z,10.07
2022-10-16T00:27:33.064Z,9.90
2022-10-16T00:30:01.622Z,9.77
2022-10-16T00:32:31.636Z,9.83
2022-10-16T00:35:00.150Z,10.53
2022-10-16T00:37:28.691Z,9.90
2022-10-16T00:39:57.336Z,9.90
2022-10-16T00:42:26.152Z,9.53
2022-10-16T00:44:57.875Z,10.53
2022-10-16T00:47:32.381Z,9.50
2022-10-16T00:50:08.757Z,9.67
2022-10-16T00:52:38.056Z,9.90
2022-10-16T00:55:09.102Z,9.70
2022-10-16T00:57:38.242Z,9.53
2022-10-16T01:00:10.620Z,9.40
2022-10-16T01:02:40.749Z,9.67
2022-10-16T01:05:10.599Z,9.17
2022-10-16T01:07:51.220Z,9.67
2022-10-16T01:10:29.955Z,9.57
2022-10-16T01:13:03.947Z,9.50
2022-10-16T01:15:36.881Z,9.67
2022-10-16T01:18:13.634Z,9.60
2022-10-16T01:20:49.711Z,10.00
2022-10-16T01:23:30.756Z,9.60
2022-10-16T01:26:17.874Z,9.20
2022-10-16T01:28:55.033Z,9.40
2022-10-16T01:31:29.373Z,9.23
2022-10-16T01:34:03.686Z,9.37
2022-10-16T01:36:41.016Z,9.33
2022-10-16T01:39:13.144Z,9.63
2022-10-16T01:41:45.850Z,9.47
2022-10-16T01:44:21.074Z,9.50
2022-10-16T01:46:53.311Z,9.57
2022-10-16T01:49:25.460Z,9.50
2022-10-16T01:51:59.165Z,9.90
2022-10-16T01:54:32.821Z,13.97
2022-10-16T01:57:02.399Z,9.30
2022-10-16T01:59:37.921Z,9.50
2022-10-16T02:02:10.712Z,9.23
2022-10-16T02:05:05.663Z,9.40
2022-10-16T02:07:34.417Z,9.50
2022-10-16T02:10:03.457Z,9.30
2022-10-16T02:12:35.502Z,9.70
2022-10-16T02:15:06.093Z,9.33
2022-10-16T02:17:35.140Z,9.23
2022-10-16T02:20:05.383Z,9.20
2022-10-16T02:22:38.489Z,9.43
2022-10-16T02:25:12.218Z,9.40
2022-10-16T02:27:50.757Z,9.43
2022-10-16T02:30:26.936Z,9.63
2022-10-16T02:32:57.292Z,14.57
2022-10-16T02:35:26.669Z,9.30
2022-10-16T02:37:56.271Z,12.63
2022-10-16T02:40:26.176Z,9.40
2022-10-16T02:42:57.249Z,9.30
2022-10-16T02:45:27.516Z,9.50
2022-10-16T02:47:56.057Z,9.53
2022-10-16T02:50:26.141Z,9.63
2022-10-16T02:52:54.899Z,9.53
2022-10-16T02:55:23.453Z,9.73
2022-10-16T02:57:51.955Z,10.27
2022-10-16T03:00:20.747Z,9.60
2022-10-16T03:02:51.044Z,9.20
2022-10-16T03:05:20.059Z,9.20
2022-10-16T03:07:48.630Z,9.17
2022-10-16T03:10:17.299Z,9.27
2022-10-16T03:12:45.861Z,9.50
2022-10-16T03:15:14.514Z,9.20
2022-10-16T03:17:43.009Z,9.30
2022-10-16T03:20:13.351Z,9.50
2022-10-16T03:22:41.999Z,9.43
2022-10-16T03:25:10.968Z,9.63
2022-10-16T03:27:39.745Z,9.47
2022-10-16T03:30:10.380Z,15.53
2022-10-16T03:32:38.917Z,9.60
2022-10-16T03:35:08.756Z,9.30
2022-10-16T03:37:38.694Z,9.47
2022-10-16T03:40:08.621Z,9.50
2022-10-16T03:42:37.257Z,9.27
2022-10-16T03:45:07.197Z,9.43
2022-10-16T03:47:35.715Z,12.27
2022-10-16T03:50:04.812Z,9.20
2022-10-16T03:52:34.057Z,9.70
2022-10-16T03:55:03.995Z,9.73
2022-10-16T03:57:32.582Z,9.13
2022-10-16T04:00:01.102Z,9.43
2022-10-16T04:02:29.627Z,9.47
2022-10-16T04:04:58.223Z,9.83
2022-10-16T04:07:26.852Z,9.13
2022-10-16T04:09:55.523Z,9.10
2022-10-16T04:12:25.492Z,9.23
2022-10-16T04:14:54.007Z,9.50
2022-10-16T04:17:22.516Z,9.30
2022-10-16T04:19:51.115Z,9.33
2022-10-16T04:22:19.756Z,9.53
2022-10-16T04:24:48.324Z,9.33
2022-10-16T04:27:16.962Z,9.30
2022-10-16T04:29:46.924Z,9.33
2022-10-16T04:32:15.436Z,9.20
2022-10-16T04:34:44.066Z,9.27
2022-10-16T04:37:12.572Z,9.30
2022-10-16T04:39:41.113Z,9.00
2022-10-16T04:42:09.796Z,9.47
2022-10-16T04:44:38.365Z,9.20
2022-10-16T04:47:08.285Z,9.17
2022-10-16T04:49:36.907Z,9.17
2022-10-16T04:52:06.464Z,8.90
2022-10-16T04:54:35.111Z,8.93
2022-10-16T04:57:03.729Z,8.97
2022-10-16T04:59:32.251Z,9.03
2022-10-16T05:02:00.762Z,8.90
2022-10-16T05:04:30.773Z,9.37
2022-10-16T05:06:59.276Z,9.17
2022-10-16T05:09:27.794Z,9.20
2022-10-16T05:11:56.677Z,9.10
2022-10-16T05:14:25.341Z,8.90
2022-10-16T05:16:53.955Z,9.00
2022-10-16T05:19:27.185Z,8.87
2022-10-16T05:21:57.909Z,8.90
2022-10-16T05:24:29.992Z,8.90
2022-10-16T05:26:58.574Z,9.00
2022-10-16T05:30:17.179Z,9.13
2022-10-16T05:32:49.900Z,9.30
2022-10-16T05:35:20.001Z,8.90
2022-10-16T05:37:49.971Z,8.80
2022-10-16T05:40:19.360Z,8.83
2022-10-16T05:42:47.971Z,8.90
2022-10-16T05:45:16.737Z,8.80
2022-10-16T05:47:45.312Z,9.03
2022-10-16T05:50:13.899Z,9.00
2022-10-16T05:52:42.479Z,9.30
2022-10-16T05:55:12.743Z,8.90
2022-10-16T05:57:41.348Z,9.30
2022-10-16T06:00:12.535Z,8.90
2022-10-16T06:02:44.451Z,9.13
2022-10-16T06:05:13.058Z,9.00
2022-10-16T06:07:41.602Z,8.90
2022-10-16T06:10:12.027Z,9.10
2022-10-16T06:12:40.521Z,8.90
2022-10-16T06:15:10.329Z,8.90
2022-10-16T06:17:38.904Z,9.10
2022-10-16T06:20:08.542Z,9.20
2022-10-16T06:22:37.601Z,9.27
2022-10-16T06:25:07.787Z,9.20
2022-10-16T06:27:37.661Z,9.30
2022-10-16T06:30:07.953Z,8.70
2022-10-16T06:32:36.572Z,9.23
2022-10-16T06:35:05.491Z,9.43
2022-10-16T06:37:33.992Z,9.17
2022-10-16T06:40:05.290Z,9.30
2022-10-16T06:42:33.817Z,9.07
2022-10-16T06:45:03.768Z,8.80
2022-10-16T06:47:32.324Z,9.20
2022-10-16T06:50:00.899Z,8.90
2022-10-16T06:52:30.503Z,9.07
2022-10-16T06:54:59.092Z,9.50
2022-10-16T06:57:27.816Z,8.90
2022-10-16T06:59:56.316Z,9.07
2022-10-16T07:02:26.359Z,8.80
2022-10-16T07:04:55.101Z,9.47
2022-10-16T07:07:25.717Z,9.37
2022-10-16T07:09:54.384Z,9.20
2022-10-16T07:12:23.099Z,8.80
2022-10-16T07:14:53.259Z,9.17
2022-10-16T07:17:21.845Z,9.60
2022-10-16T07:19:54.194Z,8.80
2022-10-16T07:22:22.783Z,9.20
2022-10-16T07:24:52.846Z,8.90
2022-10-16T07:27:23.310Z,8.90
2022-10-16T07:29:52.113Z,8.80
2022-10-16T07:32:20.631Z,8.90
2022-10-16T07:34:49.169Z,8.80
2022-10-16T07:37:19.097Z,8.80
2022-10-16T07:39:47.677Z,9.30
2022-10-16T07:42:16.333Z,9.03
2022-10-16T07:44:45.037Z,9.10
2022-10-16T07:47:13.553Z,8.80
2022-10-16T07:49:42.723Z,9.10
2022-10-16T07:52:11.342Z,8.70
2022-10-16T07:54:41.343Z,9.00
2022-10-16T07:57:09.937Z,8.73
2022-10-16T07:59:38.498Z,8.90
2022-10-16T08:02:07.267Z,8.90
2022-10-16T08:04:36.058Z,8.90
2022-10-16T08:07:04.661Z,8.60
2022-10-16T08:09:33.191Z,8.80
2022-10-16T08:12:03.286Z,8.63
2022-10-16T08:14:31.925Z,11.40
2022-10-16T08:17:00.437Z,8.70
2022-10-16T08:19:29.052Z,8.97
2022-10-16T08:21:57.608Z,8.70
2022-10-16T08:24:26.157Z,12.77
2022-10-16T08:26:56.485Z,8.80
2022-10-16T08:29:26.441Z,8.80
2022-10-16T08:31:55.013Z,8.83
2022-10-16T08:34:23.610Z,8.87
2022-10-16T08:36:52.180Z,8.60
2022-10-16T08:39:20.720Z,8.63
2022-10-16T08:42:27.819Z,9.07
2022-10-16T08:45:28.680Z,8.80
2022-10-16T08:48:12.947Z,8.53
2022-10-16T08:50:43.964Z,8.73
2022-10-16T08:53:20.747Z,8.70
2022-10-16T08:55:53.551Z,8.80
2022-10-16T08:58:25.118Z,8.67
2022-10-16T09:00:58.539Z,8.60
2022-10-16T09:03:55.041Z,8.93
2022-10-16T09:06:45.226Z,8.70
2022-10-16T09:09:35.244Z,8.60
2022-10-16T09:12:12.233Z,8.80
2022-10-16T09:14:57.316Z,8.50
2022-10-16T09:17:40.345Z,9.10
2022-10-16T09:20:31.449Z,8.53
2022-10-16T09:23:16.737Z,8.60
2022-10-16T09:25:49.847Z,8.70
2022-10-16T09:28:20.319Z,8.50
2022-10-16T09:30:50.925Z,9.00
2022-10-16T09:33:24.188Z,8.70
2022-10-16T09:35:55.873Z,8.60
2022-10-16T09:38:29.066Z,9.50
2022-10-16T09:41:03.131Z,8.60
2022-10-16T09:43:39.325Z,8.70
2022-10-16T09:46:09.856Z,8.60
2022-10-16T09:48:46.448Z,8.63
2022-10-16T09:51:24.128Z,8.70
2022-10-16T09:53:59.425Z,8.70
2022-10-16T09:56:30.684Z,8.93
2022-10-16T09:59:02.241Z,8.47
2022-10-16T10:01:39.045Z,8.67
2022-10-16T10:04:09.845Z,8.50
2022-10-16T10:06:43.529Z,8.50
2022-10-16T10:09:24.864Z,8.53
2022-10-16T10:11:56.493Z,8.93
2022-10-16T10:14:37.237Z,8.60
2022-10-16T10:17:19.249Z,8.77
2022-10-16T10:19:54.409Z,8.90
2022-10-16T10:22:41.009Z,8.33
2022-10-16T10:25:30.997Z,8.80
2022-10-16T10:28:23.731Z,8.40
2022-10-16T10:31:03.223Z,9.07
2022-10-16T10:33:42.735Z,8.80
2022-10-16T10:36:34.967Z,8.77
2022-10-16T10:39:10.094Z,11.53
2022-10-16T10:42:05.694Z,8.70
2022-10-16T10:44:55.187Z,8.57
2022-10-16T10:47:37.741Z,8.50
2022-10-16T10:50:16.936Z,8.73
2022-10-16T10:53:02.033Z,8.50
2022-10-16T10:55:43.031Z,8.83
2022-10-16T10:58:56.878Z,8.90
2022-10-16T11:01:37.123Z,8.90
2022-10-16T11:04:36.556Z,8.43
2022-10-16T11:07:08.237Z,8.60
2022-10-16T11:09:43.745Z,12.30
2022-10-16T11:12:18.221Z,9.27
2022-10-16T11:14:56.165Z,8.60
2022-10-16T11:17:30.346Z,8.50
2022-10-16T11:20:05.752Z,11.50
2022-10-16T11:22:38.630Z,8.67
2022-10-16T11:25:19.190Z,8.50
2022-10-16T11:27:54.206Z,8.30
2022-10-16T11:30:26.657Z,8.50
2022-10-16T11:33:07.161Z,8.30
2022-10-16T11:35:45.192Z,8.37
2022-10-16T11:38:23.221Z,8.40
2022-10-16T11:40:58.907Z,8.80
2022-10-16T11:43:34.955Z,8.60
2022-10-16T11:46:11.370Z,8.60
2022-10-16T11:48:47.545Z,8.50
2022-10-16T11:51:27.273Z,8.37
2022-10-16T11:54:03.032Z,8.30
2022-10-16T11:56:36.085Z,8.70
2022-10-16T11:59:12.503Z,9.47
2022-10-16T12:01:47.931Z,8.80
2022-10-16T12:04:26.039Z,8.50
2022-10-16T12:07:00.345Z,8.60
2022-10-16T12:09:32.061Z,8.40
2022-10-16T12:12:02.715Z,8.63
2022-10-16T12:15:11.423Z,8.40
2022-10-16T12:17:38.415Z,8.40
2022-10-16T12:20:28.478Z,8.60
2022-10-16T12:22:59.381Z,8.50
2022-10-16T12:25:31.956Z,8.50
2022-10-16T12:28:05.415Z,8.60
2022-10-16T12:30:37.493Z,8.57
2022-10-16T12:33:23.241Z,8.50
2022-10-16T12:35:52.276Z,8.40
2022-10-16T12:38:24.122Z,8.73
2022-10-16T12:41:03.065Z,8.40
2022-10-16T12:43:43.383Z,8.80
2022-10-16T12:46:40.818Z,8.53
2022-10-16T12:49:31.216Z,8.50
2022-10-16T12:51:59.873Z,8.50
2022-10-16T12:54:32.745Z,8.27
2022-10-16T12:57:20.835Z,8.33
2022-10-16T13:00:00.099Z,8.40
2022-10-16T13:03:08.831Z,8.40
2022-10-16T13:06:00.258Z,8.40
2022-10-16T13:08:54.379Z,8.30
2022-10-16T13:11:31.598Z,8.60
2022-10-16T13:14:45.968Z,8.67
2022-10-16T13:17:25.441Z,8.43
2022-10-16T13:20:05.164Z,8.40
2022-10-16T13:22:41.516Z,8.50
2022-10-16T13:25:26.296Z,8.77
2022-10-16T13:27:58.772Z,8.70
2022-10-16T13:30:31.039Z,8.53
2022-10-16T13:33:05.286Z,9.00
2022-10-16T13:35:36.664Z,8.70
2022-10-16T13:38:14.966Z,8.30
2022-10-16T13:40:58.415Z,8.90
2022-10-16T13:43:31.119Z,8.97
2022-10-16T13:46:03.976Z,8.73
2022-10-16T13:48:35.830Z,8.70
2022-10-16T13:51:08.112Z,8.30
2022-10-16T13:53:38.273Z,8.60
2022-10-16T13:56:11.482Z,8.40
2022-10-16T13:58:40.184Z,8.83
2022-10-16T14:01:20.304Z,8.43
2022-10-16T14:03:51.377Z,8.40
2022-10-16T14:06:23.777Z,8.50
2022-10-16T14:08:59.638Z,8.40
2022-10-16T14:11:28.698Z,14.03
2022-10-16T14:13:58.046Z,8.50
2022-10-16T14:16:30.496Z,8.40
2022-10-16T14:19:03.928Z,8.50
2022-10-16T14:21:33.133Z,8.80
2022-10-16T14:24:01.866Z,8.80
2022-10-16T14:26:30.789Z,8.50
2022-10-16T14:29:14.888Z,8.50
2022-10-16T14:31:44.577Z,8.50
2022-10-16T14:34:33.865Z,8.50
2022-10-16T14:39:38.386Z,8.70
2022-10-16T14:42:07.037Z,8.30
2022-10-16T14:44:36.237Z,8.60
2022-10-16T14:47:23.228Z,8.47
2022-10-16T14:49:54.128Z,8.77
2022-10-16T14:52:23.007Z,8.50
2022-10-16T14:54:52.084Z,8.60
2022-10-16T14:57:23.188Z,8.57
2022-10-16T14:59:53.211Z,8.60
2022-10-16T15:02:30.655Z,8.40
2022-10-16T15:05:07.239Z,8.40
2022-10-16T15:07:35.844Z,8.70
2022-10-16T15:10:05.007Z,8.57
2022-10-16T15:12:33.576Z,8.77
2022-10-16T15:15:02.844Z,10.53
2022-10-16T15:17:31.388Z,8.20
2022-10-16T15:20:01.345Z,8.50
2022-10-16T15:22:30.010Z,8.80
2022-10-16T15:24:58.519Z,8.30
2022-10-16T15:27:27.401Z,8.40
2022-10-16T15:29:56.202Z,8.80
2022-10-16T15:32:24.879Z,8.60
2022-10-16T15:34:53.412Z,8.67
2022-10-16T15:37:23.386Z,8.40
2022-10-16T15:39:52.885Z,8.87
2022-10-16T15:42:21.581Z,8.50
2022-10-16T15:44:52.140Z,9.00
2022-10-16T15:47:20.715Z,9.40
2022-10-16T15:49:49.322Z,8.47
2022-10-16T15:52:18.091Z,8.73
2022-10-16T15:54:53.336Z,8.90
2022-10-16T15:57:23.694Z,8.77
2022-10-16T15:59:52.378Z,8.80
2022-10-16T16:02:20.906Z,11.60
2022-10-16T16:04:49.508Z,10.07
2022-10-16T16:07:18.187Z,9.30
2022-10-16T16:09:48.083Z,8.73
2022-10-16T16:12:16.685Z,9.10
2022-10-16T16:14:47.112Z,9.00
2022-10-16T16:17:15.703Z,8.67
2022-10-16T16:19:44.301Z,8.90
2022-10-16T16:22:13.395Z,8.90
2022-10-16T16:24:42.029Z,9.00
2022-10-16T16:27:13.706Z,8.90
2022-10-16T16:29:42.456Z,8.70
2022-10-16T16:32:11.161Z,9.73
2022-10-16T16:34:39.686Z,8.70
2022-10-16T16:37:08.274Z,8.70
2022-10-16T16:39:36.862Z,8.60
2022-10-16T16:42:07.296Z,9.23
2022-10-16T16:44:37.927Z,8.70
2022-10-16T16:47:07.520Z,9.03
2022-10-16T16:49:36.178Z,9.40
2022-10-16T16:52:04.979Z,8.90
2022-10-16T16:57:04.304Z,9.10
2022-10-16T16:59:33.794Z,8.80
2022-10-16T17:02:04.361Z,8.93
2022-10-16T17:04:32.915Z,9.10
2022-10-16T17:07:01.466Z,9.00
2022-10-16T17:09:30.183Z,8.87
2022-10-16T17:11:58.708Z,9.23
2022-10-16T17:14:27.240Z,8.80
2022-10-16T17:16:55.923Z,9.13
2022-10-16T17:19:25.811Z,9.07
2022-10-16T17:21:55.651Z,9.00
2022-10-16T17:24:24.961Z,9.30
2022-10-16T17:26:53.479Z,9.57
2022-10-16T17:29:22.003Z,13.50
2022-10-16T17:31:50.973Z,10.80
2022-10-16T17:34:20.176Z,9.00
2022-10-16T17:36:50.160Z,9.33
2022-10-16T17:39:19.642Z,9.40
2022-10-16T17:41:49.319Z,9.20
2022-10-16T17:44:20.918Z,9.27
2022-10-16T17:46:51.362Z,9.00
2022-10-16T17:49:20.364Z,9.27
2022-10-16T17:51:52.508Z,9.87
2022-10-16T17:54:21.982Z,9.90
2022-10-16T17:56:50.835Z,9.73
2022-10-16T17:59:23.035Z,9.90
2022-10-16T18:01:51.875Z,9.80
2022-10-16T18:04:20.527Z,10.07
2022-10-16T18:06:50.944Z,10.00
2022-10-16T18:09:21.740Z,9.90
2022-10-16T18:11:52.617Z,13.97
2022-10-16T18:14:21.244Z,10.27
2022-10-16T18:19:24.032Z,10.10
2022-10-16T18:21:55.676Z,10.77
2022-10-16T18:24:25.651Z,10.30
2022-10-16T18:26:57.466Z,11.47
2022-10-16T18:29:27.731Z,10.33
2022-10-16T18:31:56.436Z,12.67
2022-10-16T18:34:26.943Z,10.30
2022-10-16T18:36:57.660Z,10.13
2022-10-16T18:39:26.209Z,10.07
2022-10-16T18:41:59.791Z,10.13
2022-10-16T18:44:28.936Z,10.17
2022-10-16T18:46:59.247Z,10.87
2022-10-16T18:49:28.245Z,9.93
2022-10-16T18:51:58.198Z,10.23
2022-10-16T18:54:26.826Z,9.70
2022-10-16T18:56:55.619Z,9.67
2022-10-16T18:59:26.321Z,9.60
2022-10-16T19:01:55.040Z,10.00
2022-10-16T19:04:24.016Z,9.90
2022-10-16T19:06:55.011Z,9.83
2022-10-16T19:09:26.605Z,11.43
2022-10-16T19:11:55.222Z,11.53
2022-10-16T19:14:25.212Z,10.70
2022-10-16T19:16:53.752Z,62.20
2022-10-16T19:19:23.839Z,76.63
2022-10-16T19:21:56.559Z,73.40
2022-10-16T19:24:26.718Z,80.40
2022-10-16T19:26:55.382Z,68.73
2022-10-16T19:29:23.936Z,55.87
2022-10-16T19:31:52.542Z,47.23
2022-10-16T19:34:21.091Z,35.43
2022-10-16T19:36:50.312Z,27.43
2022-10-16T19:41:53.742Z,22.97
2022-10-16T19:44:22.299Z,22.90
2022-10-16T19:46:50.820Z,20.47
2022-10-16T19:49:21.901Z,18.70
2022-10-16T19:51:52.330Z,15.40
2022-10-16T19:54:21.575Z,14.47
2022-10-16T19:56:50.268Z,13.17
2022-10-16T19:59:20.383Z,13.80
2022-10-16T20:01:49.212Z,13.73
2022-10-16T20:04:17.942Z,16.70
2022-10-16T20:06:46.613Z,19.90
2022-10-16T20:09:15.461Z,17.17
2022-10-16T20:11:44.158Z,16.23
2022-10-16T20:14:12.826Z,14.43
2022-10-16T20:16:43.214Z,14.40
2022-10-16T20:19:12.269Z,14.10
2022-10-16T20:21:40.823Z,14.70
2022-10-16T20:24:09.456Z,13.37
2022-10-16T20:26:38.729Z,12.73
2022-10-16T20:29:08.161Z,12.70
2022-10-16T20:31:37.024Z,10.93
2022-10-16T20:34:10.876Z,10.80
2022-10-16T20:36:42.876Z,10.80
2022-10-16T20:39:13.799Z,10.60
2022-10-16T20:41:42.500Z,11.30
2022-10-16T20:44:11.102Z,10.70
2022-10-16T20:46:39.750Z,10.50
2022-10-16T20:49:27.961Z,10.30
2022-10-16T20:51:58.693Z,10.50
2022-10-16T20:54:27.256Z,10.80
2022-10-16T20:56:55.959Z,10.40
2022-10-16T20:59:24.634Z,10.47
2022-10-16T21:01:53.343Z,10.53
2022-10-16T21:04:23.346Z,10.10
2022-10-16T21:06:51.971Z,9.70
2022-10-16T21:09:20.528Z,10.47
2022-10-16T21:11:49.093Z,10.13
2022-10-16T21:14:17.916Z,9.73
2022-10-16T21:16:46.532Z,9.73
2022-10-16T21:19:15.063Z,10.07
2022-10-16T21:21:45.045Z,9.57
2022-10-16T21:24:16.557Z,9.60
2022-10-16T21:26:46.389Z,9.70
2022-10-16T21:29:15.045Z,9.70
2022-10-16T21:31:44.574Z,9.67
2022-10-16T21:34:13.163Z,9.67
2022-10-16T21:36:44.744Z,9.60
2022-10-16T21:39:16.782Z,9.67
2022-10-16T21:41:47.943Z,9.70
2022-10-16T21:44:17.554Z,9.57
2022-10-16T21:46:46.881Z,9.90
2022-10-16T21:49:17.458Z,10.23
2022-10-16T21:51:50.149Z,9.43
2022-10-16T21:54:21.914Z,12.60
2022-10-16T21:56:50.867Z,9.97
2022-10-16T21:59:19.707Z,16.23
2022-10-16T22:01:48.389Z,10.97
2022-10-16T22:04:18.534Z,10.93
2022-10-16T22:06:48.669Z,9.80
2022-10-16T22:09:17.301Z,9.73
2022-10-16T22:11:46.696Z,9.80
2022-10-16T22:14:18.605Z,10.10
2022-10-16T22:16:49.241Z,10.00
2022-10-16T22:19:20.446Z,10.33
2022-10-16T22:21:51.890Z,10.23
2022-10-16T22:24:21.122Z,9.97
2022-10-16T22:26:50.172Z,10.43
2022-10-16T22:29:19.991Z,9.70
2022-10-16T22:31:53.287Z,10.63
2022-10-16T22:34:21.919Z,10.03
2022-10-16T22:36:52.149Z,10.17
2022-10-16T22:39:21.152Z,9.57
2022-10-16T22:41:49.762Z,9.90
2022-10-16T22:44:19.277Z,9.60
2022-10-16T22:46:48.077Z,9.97
2022-10-16T22:49:20.390Z,9.60
2022-10-16T22:54:24.083Z,10.10
2022-10-16T22:56:52.600Z,9.77
2022-10-16T22:59:21.158Z,9.40
2022-10-16T23:01:49.780Z,9.87
2022-10-16T23:04:18.334Z,10.70
2022-10-16T23:06:46.857Z,9.87
2022-10-16T23:09:15.473Z,9.90
2022-10-16T23:11:45.381Z,10.07
2022-10-16T23:14:13.939Z,10.07
2022-10-16T23:16:42.540Z,9.80
2022-10-16T23:19:11.146Z,9.90
2022-10-16T23:21:39.707Z,10.30
2022-10-16T23:24:08.490Z,9.70
2022-10-16T23:26:37.747Z,9.50
2022-10-16T23:29:07.812Z,9.63
2022-10-16T23:31:36.656Z,10.10
2022-10-16T23:34:05.270Z,12.00
2022-10-16T23:36:33.773Z,9.67
2022-10-16T23:39:02.364Z,9.63
2022-10-16T23:41:30.878Z,10.07
2022-10-16T23:43:59.448Z,9.97
2022-10-16T23:46:29.496Z,10.10
2022-10-16T23:48:58.034Z,10.20
2022-10-16T23:51:27.329Z,10.00
2022-10-16T23:53:56.066Z,9.90
2022-10-16T23:56:24.607Z,10.13
2022-10-16T23:58:53.151Z,11.20
